createdAt,value
2019-02-15T00:01:49.813Z,-1.70
2019-02-15T00:06:52.260Z,-1.70
2019-02-15T00:11:54.789Z,-1.70
2019-02-15T00:16:57.291Z,-1.70
2019-02-15T00:21:59.686Z,-1.70
2019-02-15T00:27:02.321Z,-1.80
2019-02-15T00:32:04.854Z,-1.80
2019-02-15T00:37:07.367Z,-1.80
2019-02-15T00:42:10.275Z,-1.80
2019-02-15T00:47:24.071Z,-1.80
2019-02-15T00:52:37.471Z,-1.80
2019-02-15T00:58:03.959Z,-1.80
2019-02-15T01:03:35.172Z,-1.80
2019-02-15T01:08:57.599Z,-1.80
2019-02-15T01:14:00.079Z,-2.00
2019-02-15T01:19:02.570Z,-2.00
2019-02-15T01:24:05.103Z,-2.00
2019-02-15T01:29:38.987Z,-1.90
2019-02-15T01:34:51.322Z,-2.00
2019-02-15T01:40:07.591Z,-2.00
2019-02-15T01:45:27.578Z,-2.00
2019-02-15T01:50:30.330Z,-2.00
2019-02-15T01:55:32.802Z,-2.00
2019-02-15T02:00:35.992Z,-2.10
2019-02-15T02:05:38.554Z,-2.10
2019-02-15T02:10:41.118Z,-2.10
2019-02-15T02:15:43.695Z,-2.10
2019-02-15T02:20:46.327Z,-2.20
2019-02-15T02:25:48.958Z,-2.10
2019-02-15T02:30:51.432Z,-2.10
2019-02-15T02:35:53.920Z,-2.20
2019-02-15T02:40:56.396Z,-2.20
2019-02-15T02:45:58.954Z,-2.20
2019-02-15T02:51:01.488Z,-2.30
2019-02-15T02:56:04.153Z,-2.30
2019-02-15T03:01:06.951Z,-2.30
2019-02-15T03:06:09.575Z,-2.30
2019-02-15T03:11:12.084Z,-2.30
2019-02-15T03:16:15.196Z,-2.30
2019-02-15T03:21:24.310Z,-2.40
2019-02-15T03:26:27.088Z,-2.40
2019-02-15T03:31:29.660Z,-2.50
2019-02-15T03:36:44.263Z,-2.40
2019-02-15T03:41:46.806Z,-2.50
2019-02-15T03:46:49.384Z,-2.50
2019-02-15T03:51:52.651Z,-2.60
2019-02-15T03:56:55.199Z,-2.60
2019-02-15T04:01:57.648Z,-2.50
2019-02-15T04:07:00.151Z,-2.50
2019-02-15T04:12:03.029Z,-2.50
2019-02-15T04:17:06.045Z,-2.60
2019-02-15T04:22:13.662Z,-2.60
2019-02-15T04:27:21.222Z,-2.70
2019-02-15T04:32:26.438Z,-2.70
2019-02-15T04:37:30.346Z,-2.70
2019-02-15T04:42:39.922Z,-2.00
2019-02-15T04:49:01.375Z,-2.10
2019-02-15T05:00:09.300Z,-2.50
2019-02-15T05:05:18.628Z,-2.60
2019-02-15T05:10:23.454Z,-2.70
2019-02-15T05:15:30.331Z,-2.80
2019-02-15T05:20:35.319Z,-2.80
2019-02-15T05:25:38.179Z,-2.90
2019-02-15T05:30:53.611Z,-2.90
2019-02-15T05:35:59.448Z,-2.90
2019-02-15T05:41:04.275Z,-3.00
2019-02-15T05:46:16.480Z,-3.00
2019-02-15T05:51:21.711Z,-3.10
2019-02-15T05:56:31.454Z,-3.10
2019-02-15T06:01:35.877Z,-3.20
2019-02-15T06:06:43.200Z,-3.20
2019-02-15T06:11:45.857Z,-3.10
2019-02-15T06:17:01.951Z,-3.20
2019-02-15T06:22:12.146Z,-3.30
2019-02-15T06:27:18.171Z,-3.30
2019-02-15T06:32:27.133Z,-3.30
2019-02-15T06:37:39.238Z,-3.30
2019-02-15T06:43:03.396Z,-3.10
2019-02-15T06:48:22.830Z,-3.00
2019-02-15T06:53:28.866Z,-2.90
2019-02-15T06:58:35.999Z,-2.70
2019-02-15T07:04:06.310Z,-2.60
2019-02-15T07:09:09.058Z,-2.40
2019-02-15T07:14:11.548Z,-2.20
2019-02-15T07:19:14.128Z,-2.00
2019-02-15T07:24:16.624Z,-1.80
2019-02-15T07:29:19.472Z,-1.50
2019-02-15T07:34:22.376Z,-1.10
2019-02-15T07:39:25.199Z,-0.90
2019-02-15T07:44:27.680Z,-0.60
2019-02-15T07:49:31.185Z,-0.50
2019-02-15T07:54:33.811Z,-0.20
2019-02-15T07:59:36.756Z,-0.10
2019-02-15T08:04:39.819Z,0.20
2019-02-15T08:09:42.466Z,0.40
2019-02-15T08:14:45.380Z,0.60
2019-02-15T08:19:47.956Z,0.80
2019-02-15T08:24:50.949Z,1.10
2019-02-15T08:29:53.788Z,1.30
2019-02-15T08:34:57.470Z,1.60
2019-02-15T08:39:59.887Z,1.90
2019-02-15T08:45:03.431Z,2.10
2019-02-15T08:50:09.257Z,2.40
2019-02-15T08:55:11.906Z,2.70
2019-02-15T09:00:16.879Z,3.00
2019-02-15T09:05:20.083Z,3.30
2019-02-15T09:10:22.728Z,3.60
2019-02-15T09:15:27.903Z,3.80
2019-02-15T09:20:30.428Z,4.10
2019-02-15T09:25:36.099Z,4.30
2019-02-15T09:30:40.935Z,4.50
2019-02-15T09:35:43.345Z,4.70
2019-02-15T09:40:46.067Z,4.90
2019-02-15T09:45:48.692Z,5.20
2019-02-15T09:50:52.404Z,5.30
2019-02-15T09:55:55.588Z,5.60
2019-02-15T10:00:58.979Z,5.90
2019-02-15T10:06:02.344Z,6.10
2019-02-15T10:11:04.969Z,6.30
2019-02-15T10:16:07.924Z,6.60
2019-02-15T10:21:13.062Z,6.80
2019-02-15T10:26:18.307Z,7.00
2019-02-15T10:31:20.932Z,7.20
2019-02-15T10:36:23.700Z,7.50
2019-02-15T10:41:26.491Z,7.80
2019-02-15T10:46:37.695Z,8.00
2019-02-15T10:51:34.377Z,8.30
2019-02-15T10:56:36.988Z,8.50
2019-02-15T11:01:40.467Z,8.70
2019-02-15T11:06:45.789Z,8.90
2019-02-15T11:11:48.493Z,9.00
2019-02-15T11:16:59.525Z,9.20
2019-02-15T11:22:07.382Z,9.30
2019-02-15T11:27:10.635Z,9.50
2019-02-15T11:32:14.374Z,9.60
2019-02-15T11:37:16.906Z,9.80
2019-02-15T11:42:21.775Z,10.00
2019-02-15T11:47:24.392Z,10.10
2019-02-15T11:52:27.482Z,10.30
2019-02-15T11:57:29.975Z,10.50
2019-02-15T12:02:33.657Z,10.70
2019-02-15T12:07:36.900Z,10.90
2019-02-15T12:12:40.180Z,11.00
2019-02-15T12:17:44.664Z,11.20
2019-02-15T12:22:47.403Z,11.30
2019-02-15T12:27:52.744Z,11.50
2019-02-15T12:32:56.665Z,11.70
2019-02-15T12:38:11.040Z,11.80
2019-02-15T12:43:14.347Z,11.90
2019-02-15T12:48:18.330Z,12.10
2019-02-15T12:53:20.943Z,12.10
2019-02-15T12:58:28.467Z,12.30
2019-02-15T13:03:55.171Z,12.40
2019-02-15T13:15:20.831Z,12.50
2019-02-15T13:26:21.740Z,12.70
2019-02-15T13:31:24.848Z,12.80
2019-02-15T13:36:32.518Z,12.80
2019-02-15T13:41:36.117Z,12.90
2019-02-15T13:46:39.674Z,12.90
2019-02-15T13:51:44.602Z,12.90
2019-02-15T13:57:29.931Z,12.90
2019-02-15T14:02:33.420Z,12.90
2019-02-15T14:07:36.418Z,12.80
2019-02-15T14:12:39.078Z,12.80
2019-02-15T14:23:20.389Z,12.80
2019-02-15T14:28:23.108Z,12.70
2019-02-15T14:33:25.782Z,12.70
2019-02-15T14:38:29.411Z,12.70
2019-02-15T14:43:33.139Z,12.70
2019-02-15T14:48:38.689Z,12.60
2019-02-15T14:54:00.775Z,12.60
2019-02-15T14:59:03.508Z,12.50
2019-02-15T15:04:06.227Z,12.40
2019-02-15T15:09:09.028Z,12.30
2019-02-15T15:14:11.562Z,12.30
2019-02-15T15:19:14.128Z,12.40
2019-02-15T15:24:16.708Z,13.00
2019-02-15T15:29:19.235Z,14.00
2019-02-15T15:46:11.954Z,18.00
2019-02-15T15:51:16.351Z,18.70
2019-02-15T15:56:19.954Z,19.10
2019-02-15T16:01:22.539Z,18.80
2019-02-15T16:06:25.522Z,18.00
2019-02-15T16:11:28.263Z,17.00
2019-02-15T16:16:30.838Z,15.80
2019-02-15T16:21:33.318Z,13.80
2019-02-15T16:26:45.207Z,12.20
2019-02-15T16:31:50.499Z,10.70
2019-02-15T16:36:53.016Z,9.40
2019-02-15T16:42:43.933Z,8.50
2019-02-15T16:47:55.976Z,7.70
2019-02-15T16:53:16.732Z,7.20
2019-02-15T16:58:19.376Z,6.80
2019-02-15T17:03:21.972Z,6.60
2019-02-15T17:08:25.759Z,6.30
2019-02-15T17:13:28.411Z,6.10
2019-02-15T17:18:31.183Z,5.90
2019-02-15T17:23:34.304Z,5.60
2019-02-15T17:28:51.410Z,5.40
2019-02-15T17:33:55.979Z,5.30
2019-02-15T17:38:59.266Z,5.20
2019-02-15T17:44:02.014Z,5.00
2019-02-15T17:49:35.735Z,4.80
2019-02-15T17:54:40.993Z,4.60
2019-02-15T17:59:43.610Z,4.50
2019-02-15T18:04:46.263Z,4.20
2019-02-15T18:09:49.438Z,4.00
2019-02-15T18:14:52.060Z,3.80
2019-02-15T18:19:54.671Z,3.80
2019-02-15T18:24:57.307Z,3.70
2019-02-15T18:29:59.841Z,3.70
2019-02-15T18:35:02.607Z,3.50
2019-02-15T18:40:05.443Z,3.30
2019-02-15T18:45:09.693Z,3.20
2019-02-15T18:50:12.403Z,3.10
2019-02-15T18:55:19.485Z,2.90
2019-02-15T19:00:27.698Z,2.80
2019-02-15T19:05:30.312Z,2.70
2019-02-15T19:10:33.580Z,2.60
2019-02-15T19:15:36.899Z,2.50
2019-02-15T19:20:40.882Z,2.40
2019-02-15T19:25:43.896Z,2.30
2019-02-15T19:30:47.961Z,2.10
2019-02-15T19:35:51.697Z,2.00
2019-02-15T19:40:56.420Z,1.90
2019-02-15T19:46:00.946Z,1.70
2019-02-15T19:51:03.584Z,1.70
2019-02-15T19:56:06.189Z,1.60
2019-02-15T20:01:08.775Z,1.60
2019-02-15T20:06:11.804Z,1.60
2019-02-15T20:11:14.351Z,1.50
2019-02-15T20:16:20.241Z,1.40
2019-02-15T20:21:22.865Z,1.30
2019-02-15T20:26:25.632Z,1.20
2019-02-15T20:31:28.190Z,1.10
2019-02-15T20:36:31.461Z,1.00
2019-02-15T20:41:34.868Z,1.00
2019-02-15T20:46:37.763Z,1.00
2019-02-15T20:51:41.448Z,0.90
2019-02-15T20:56:44.311Z,0.90
2019-02-15T21:01:46.884Z,0.80
2019-02-15T21:06:49.421Z,0.70
2019-02-15T21:11:52.843Z,0.60
2019-02-15T21:16:55.406Z,0.40
2019-02-15T21:21:58.373Z,0.40
2019-02-15T21:27:01.481Z,0.40
2019-02-15T21:32:05.094Z,0.30
2019-02-15T21:37:10.636Z,0.20
2019-02-15T21:42:13.279Z,0.10
2019-02-15T21:47:18.200Z,0.00
2019-02-15T21:52:20.985Z,-0.10
2019-02-15T21:57:24.048Z,-0.20
2019-02-15T22:02:26.653Z,-0.20
2019-02-15T22:07:29.512Z,-0.20
2019-02-15T22:12:32.127Z,-0.30
2019-02-15T22:17:34.642Z,-0.40
2019-02-15T22:22:37.347Z,-0.40
2019-02-15T22:27:39.938Z,-0.40
2019-02-15T22:32:43.051Z,-0.40
2019-02-15T22:37:45.761Z,-0.50
2019-02-15T22:42:49.969Z,-0.60
2019-02-15T22:47:52.446Z,-0.70
2019-02-15T22:52:56.708Z,-0.70
2019-02-15T22:58:00.247Z,-0.70
2019-02-15T23:03:02.886Z,-0.80
2019-02-15T23:08:05.422Z,-0.80
2019-02-15T23:13:08.452Z,-0.80
2019-02-15T23:18:11.018Z,-0.80
2019-02-15T23:23:14.012Z,-0.90
2019-02-15T23:28:16.892Z,-0.90
2019-02-15T23:33:19.539Z,-1.00
2019-02-15T23:38:22.013Z,-1.00
2019-02-15T23:43:25.070Z,-1.10
2019-02-15T23:48:27.595Z,-1.10
2019-02-15T23:53:32.809Z,-1.20
2019-02-15T23:58:37.392Z,-1.30
